Time;durP1;ratioP1;P1;durP2;ratioP2;P2;SDS_P1;SDS_P2;PMS_P1;PMS_P2;Temp;Humidity;BMP_temperature;BMP_pressure;BME280_temperature;BME280_humidity;BME280_pressure;Samples;Min_cycle;Max_cycle;Signal;HPM_P1;HPM_P2
2023/03/20 06:48:14;;;;;;;;;8.25;8.25;;;;;17.81;48.59;101891.69;5070743;27;45499;-75
2023/03/20 06:50:40;;;;;;;;;10.75;10.75;;;;;18.33;49.64;101886.44;5072816;27;45482;-76
2023/03/20 06:53:05;;;;;;;;;10.75;10.75;;;;;19.05;49.86;101893.97;5072323;27;45404;-78
2023/03/20 06:55:30;;;;;;;;;9.00;8.75;;;;;19.92;49.79;101902.94;5073133;27;45409;-77
2023/03/20 06:57:56;;;;;;;;;8.75;6.25;;;;;20.75;49.61;101904.72;5069688;27;46409;-77
2023/03/20 07:00:21;;;;;;;;;8.50;8.50;;;;;21.49;49.55;101897.09;5069622;28;45326;-78
2023/03/20 07:02:47;;;;;;;;;13.25;11.75;;;;;22.17;48.40;101904.09;5067953;28;45527;-78
2023/03/20 07:05:13;;;;;;;;;17.75;12.00;;;;;22.72;47.51;101901.19;5069766;28;45617;-78
2023/03/20 07:07:39;;;;;;;;;12.25;11.25;;;;;23.17;46.97;101888.22;5059128;27;45446;-78
2023/03/20 07:10:05;;;;;;;;;11.25;11.25;;;;;23.60;46.33;101896.19;5067568;28;45530;-78
2023/03/20 07:12:30;;;;;;;;;8.75;8.75;;;;;23.97;45.53;101894.63;5069430;28;45667;-77
2023/03/20 07:14:55;;;;;;;;;13.50;10.00;;;;;24.27;45.07;101890.91;5067483;27;45360;-80
2023/03/20 07:17:22;;;;;;;;;8.00;8.00;;;;;24.54;44.47;101880.28;5066117;28;45527;-76
2023/03/20 07:19:47;;;;;;;;;14.75;10.75;;;;;24.79;44.12;101891.47;5069355;28;45529;-76
2023/03/20 07:22:22;;;;;;;;;9.67;7.67;;;;;25.04;44.01;101892.66;5069114;28;45486;-76
2023/03/20 07:24:48;;;;;;;;;10.00;9.67;;;;;25.24;43.20;101895.28;5069866;28;45410;-76
2023/03/20 07:27:13;;;;;;;;;9.67;8.00;;;;;25.42;42.85;101899.88;5069582;28;45914;-76
2023/03/20 07:29:38;;;;;;;;;9.33;7.33;;;;;25.55;42.24;101899.50;5066904;28;45638;-77
2023/03/20 07:32:04;;;;;;;;;9.67;8.33;;;;;25.68;42.13;101902.75;5068101;28;50225;-82
2023/03/20 07:34:29;;;;;;;;;11.00;10.67;;;;;25.77;41.80;101904.53;5069231;28;45470;-80
2023/03/20 07:36:55;;;;;;;;;10.67;8.67;;;;;25.89;41.45;101901.56;5067725;28;45936;-77
2023/03/20 07:39:21;;;;;;;;;11.00;10.67;;;;;26.00;41.51;101900.47;5069554;28;45466;-82
2023/03/20 07:41:46;;;;;;;;;11.00;10.00;;;;;26.12;41.14;101906.50;5068560;28;45416;-80
2023/03/20 07:44:13;;;;;;;;;8.00;8.00;;;;;26.21;40.80;101904.69;5068126;27;45353;-81
2023/03/20 07:46:39;;;;;;;;;12.33;10.67;;;;;26.28;40.88;101909.38;5068053;28;46054;-81
2023/03/20 07:49:05;;;;;;;;;11.00;10.67;;;;;26.36;40.43;101908.56;5060558;28;45305;-80
2023/03/20 07:51:30;;;;;;;;;14.00;10.67;;;;;26.43;40.38;101900.63;5068351;28;45455;-80
2023/03/20 07:53:55;;;;;;;;;8.00;6.67;;;;;26.50;40.41;101909.00;5069504;28;45506;-80
2023/03/20 07:56:21;;;;;;;;;11.33;9.67;;;;;26.53;39.70;101901.34;5068409;28;50643;-79
2023/03/20 07:58:46;;;;;;;;;8.33;8.33;;;;;26.59;39.62;101908.03;5059039;28;45504;-77
2023/03/20 08:01:11;;;;;;;;;7.67;7.67;;;;;26.63;39.18;101903.97;5054414;28;46167;-80
2023/03/20 08:03:38;;;;;;;;;8.00;7.00;;;;;26.67;39.15;101899.06;5054131;28;45913;-83
2023/03/20 08:06:06;;;;;;;;;8.33;8.33;;;;;26.71;39.43;101897.72;5052065;28;45443;-82
2023/03/20 08:08:31;;;;;;;;;8.00;8.00;;;;;26.77;39.02;101901.69;5055027;28;45494;-77
2023/03/20 08:10:57;;;;;;;;;6.67;6.00;;;;;26.81;38.87;101905.78;5054511;28;45356;-78
2023/03/20 08:13:22;;;;;;;;;10.00;9.00;;;;;26.85;38.74;101901.69;5054858;28;45528;-77
2023/03/20 08:15:47;;;;;;;;;8.00;7.00;;;;;26.91;38.58;101905.66;5054806;28;45446;-79
2023/03/20 08:18:13;;;;;;;;;9.67;8.33;;;;;26.94;38.25;101899.91;5054862;28;45364;-78
2023/03/20 08:20:38;;;;;;;;;5.33;5.33;;;;;26.97;38.11;101899.56;5055031;28;45459;-80
2023/03/20 08:23:03;;;;;;;;;8.33;7.67;;;;;27.02;38.63;101907.25;5055595;28;45486;-80
2023/03/20 08:25:32;;;;;;;;;7.00;7.00;;;;;27.03;37.96;101898.06;5054657;28;45440;-81
2023/03/20 08:27:58;;;;;;;;;8.00;8.00;;;;;27.07;38.15;101905.75;5055153;28;45450;-81
2023/03/20 08:30:24;;;;;;;;;8.00;8.00;;;;;27.10;37.57;101902.69;5049680;28;45456;-79
2023/03/20 08:32:49;;;;;;;;;6.00;5.67;;;;;27.15;37.49;101910.38;5053796;28;45364;-81
2023/03/20 08:35:14;;;;;;;;;5.33;5.33;;;;;27.15;37.40;101910.38;5055149;28;45416;-80
2023/03/20 08:37:40;;;;;;;;;7.33;6.67;;;;;27.20;37.59;101920.78;5055065;28;45472;-78
2023/03/20 08:40:05;;;;;;;;;7.00;6.33;;;;;27.20;37.64;101918.03;5054173;28;45486;-76
2023/03/20 08:42:31;;;;;;;;;8.33;6.33;;;;;27.24;37.41;101935.78;5053562;28;45501;-76
2023/03/20 08:44:57;;;;;;;;;7.00;7.00;;;;;27.25;36.94;101931.19;5054286;28;45415;-80
2023/03/20 08:47:22;;;;;;;;;7.33;7.33;;;;;27.25;36.65;101925.75;5054346;28;46016;-77
2023/03/20 08:49:47;;;;;;;;;8.00;7.00;;;;;27.28;36.52;101939.88;5051559;28;45676;-79
2023/03/20 08:52:13;;;;;;;;;6.00;6.00;;;;;27.29;37.27;101941.59;5054822;28;45471;-77
2023/03/20 08:54:38;;;;;;;;;6.00;5.33;;;;;27.28;36.51;101939.88;5047406;28;45510;-78
2023/03/20 08:57:04;;;;;;;;;7.00;5.67;;;;;27.27;36.26;101940.91;5052208;28;45331;-79
2023/03/20 08:59:30;;;;;;;;;6.33;6.33;;;;;27.25;36.07;101936.66;5050725;28;45682;-78
2023/03/20 09:01:55;;;;;;;;;7.00;7.00;;;;;27.21;36.14;101941.53;5048898;28;45549;-79
2023/03/20 09:04:20;;;;;;;;;6.67;5.00;;;;;27.19;36.26;101939.00;5050463;28;45751;-80
2023/03/20 09:06:46;;;;;;;;;7.00;7.00;;;;;27.17;35.95;101932.84;5053444;28;46368;-80
2023/03/20 09:09:14;;;;;;;;;4.67;4.67;;;;;27.16;35.89;101933.00;5054272;28;45644;-80
2023/03/20 09:11:40;;;;;;;;;6.00;6.00;;;;;27.16;35.79;101928.44;5051849;28;45491;-79
2023/03/20 09:14:05;;;;;;;;;7.33;5.33;;;;;27.18;35.93;101933.72;5053744;28;45885;-79
2023/03/20 09:16:30;;;;;;;;;7.67;6.00;;;;;27.21;36.20;101927.91;5053302;28;45479;-75
2023/03/20 09:18:56;;;;;;;;;4.33;4.33;;;;;27.23;36.38;101931.34;5045683;28;47265;-75
2023/03/20 09:21:21;;;;;;;;;6.00;6.00;;;;;27.24;36.33;101927.59;5051706;28;45484;-76
2023/03/20 09:23:46;;;;;;;;;6.00;5.33;;;;;27.26;36.16;101922.81;5047704;28;46305;-78
2023/03/20 09:26:12;;;;;;;;;6.00;5.00;;;;;27.29;36.18;101918.91;5048081;28;45463;-77
2023/03/20 09:28:37;;;;;;;;;7.33;6.33;;;;;27.33;35.58;101917.56;5053117;28;45467;-77
2023/03/20 09:31:02;;;;;;;;;6.00;5.67;;;;;27.35;35.66;101912.81;5052355;28;45306;-76
2023/03/20 09:33:28;;;;;;;;;5.00;5.00;;;;;27.38;35.45;101907.03;5052620;28;46046;-76
2023/03/20 09:35:53;;;;;;;;;5.00;5.00;;;;;27.44;35.53;101910.97;5050695;28;45753;-76
2023/03/20 09:38:20;;;;;;;;;4.33;4.33;;;;;27.47;36.04;101914.19;5053582;28;45382;-76
2023/03/20 09:41:02;;;;;;;;;5.00;5.00;;;;;27.52;35.82;101907.41;5050725;28;45514;-76
2023/03/20 09:43:59;;;;;;;;;6.67;5.00;;;;;27.56;35.54;101906.03;5050430;28;46052;-77
2023/03/20 09:46:53;;;;;;;;;6.00;4.33;;;;;27.61;35.88;101899.09;5051981;28;45397;-76
2023/03/20 09:50:09;;;;;;;;;5.67;5.67;;;;;27.69;35.15;101894.66;5049807;28;45440;-76
2023/03/20 09:52:44;;;;;;;;;5.67;5.00;;;;;27.73;35.23;101902.34;5050917;28;45509;-77
2023/03/20 09:55:16;;;;;;;;;5.67;4.33;;;;;27.79;34.99;101903.53;5050089;28;46164;-77
2023/03/20 09:57:46;;;;;;;;;3.33;3.33;;;;;27.84;34.90;101905.75;5022352;28;47086;-78
2023/03/20 10:00:16;;;;;;;;;5.00;5.00;;;;;27.85;34.88;101905.59;5047432;28;45802;-75
2023/03/20 10:02:51;;;;;;;;;6.00;4.33;;;;;27.87;35.50;101906.28;5047646;28;45577;-76
2023/03/20 10:05:27;;;;;;;;;4.00;4.00;;;;;27.90;35.46;101907.81;5048822;28;47168;-75
2023/03/20 10:07:58;;;;;;;;;4.67;4.67;;;;;27.92;35.47;101911.22;5049966;28;45590;-76
2023/03/20 10:10:38;;;;;;;;;6.00;6.00;;;;;27.95;35.25;101907.31;5044422;28;45483;-76
2023/03/20 10:13:31;;;;;;;;;4.33;4.33;;;;;27.99;34.61;101905.91;5049145;28;45690;-75
2023/03/20 10:16:07;;;;;;;;;5.00;5.00;;;;;28.04;35.13;101902.69;5048687;28;45882;-76
2023/03/20 10:18:36;;;;;;;;;4.00;4.00;;;;;28.07;35.17;101896.91;5042826;28;45595;-75
2023/03/20 10:21:26;;;;;;;;;4.00;4.00;;;;;28.10;34.48;101897.41;5050273;28;45601;-79
2023/03/20 10:24:18;;;;;;;;;4.00;4.00;;;;;28.11;34.40;101890.91;5050070;28;45458;-75
2023/03/20 10:26:49;;;;;;;;;3.33;3.00;;;;;28.14;34.74;101886.97;5036472;28;46348;-75
2023/03/20 10:29:22;;;;;;;;;3.00;3.00;;;;;28.18;34.39;101891.09;5048692;28;45770;-76
2023/03/20 10:32:16;;;;;;;;;6.00;4.00;;;;;28.22;34.45;101888.84;5052318;28;45454;-76
2023/03/20 10:34:55;;;;;;;;;5.67;4.00;;;;;28.26;34.58;101893.84;5041080;28;45463;-76
2023/03/20 10:37:33;;;;;;;;;5.00;5.00;;;;;28.34;34.33;101892.09;5052092;28;46204;-76
2023/03/20 10:40:26;;;;;;;;;2.67;2.67;;;;;28.38;34.71;101888.00;5050219;28;45498;-76
2023/03/20 10:43:02;;;;;;;;;4.33;3.00;;;;;28.43;34.71;101882.88;5052881;28;45805;-75
2023/03/20 10:45:43;;;;;;;;;4.00;4.00;;;;;28.47;34.17;101880.63;5051516;28;45508;-76
2023/03/20 10:48:28;;;;;;;;;4.67;4.00;;;;;28.51;34.52;101882.84;5047283;28;45539;-76
2023/03/20 10:50:57;;;;;;;;;2.33;2.33;;;;;28.54;34.24;101878.91;5045503;28;45511;-76
2023/03/20 10:53:29;;;;;;;;;4.00;3.00;;;;;28.56;34.02;101867.81;5052514;28;45615;-76
2023/03/20 10:55:59;;;;;;;;;6.67;5.00;;;;;28.59;34.58;101875.66;5041353;28;45754;-75
2023/03/20 10:58:32;;;;;;;;;3.00;3.00;;;;;28.61;34.62;101854.50;5051264;28;45477;-76
2023/03/20 11:00:59;;;;;;;;;4.00;4.00;;;;;28.63;34.17;101855.16;5048811;28;45655;-74
2023/03/20 11:03:27;;;;;;;;;3.67;3.67;;;;;28.67;34.67;101857.38;5050674;28;46239;-75
2023/03/20 11:06:05;;;;;;;;;4.00;4.00;;;;;28.70;34.62;101860.78;5052549;28;45343;-75
2023/03/20 11:08:39;;;;;;;;;3.33;2.00;;;;;28.72;34.07;101859.56;5039444;28;46409;-75
2023/03/20 11:11:05;;;;;;;;;4.00;4.00;;;;;28.74;34.01;101856.66;5051779;28;45378;-75
2023/03/20 11:13:40;;;;;;;;;3.67;3.67;;;;;28.75;33.93;101853.75;5051649;28;45316;-75
2023/03/20 11:16:22;;;;;;;;;4.67;2.67;;;;;28.78;34.20;101855.28;5051000;28;45583;-76
2023/03/20 11:18:49;;;;;;;;;3.33;3.33;;;;;28.79;34.04;101846.03;5048230;28;46143;-75
2023/03/20 11:21:27;;;;;;;;;6.00;6.00;;;;;28.83;34.04;101835.59;5050740;28;45370;-75
2023/03/20 11:23:54;;;;;;;;;6.00;5.00;;;;;28.86;33.92;101844.31;5051117;28;45509;-76
2023/03/20 11:26:34;;;;;;;;;3.00;3.00;;;;;28.86;34.12;101830.66;5049616;28;45466;-75
2023/03/20 11:29:00;;;;;;;;;3.00;3.00;;;;;28.89;34.30;101833.03;5050828;28;46115;-76
2023/03/20 11:31:37;;;;;;;;;3.00;3.00;;;;;28.89;34.11;101835.78;5050743;28;45445;-76
2023/03/20 11:34:03;;;;;;;;;4.00;3.00;;;;;28.90;33.83;101837.47;5052871;28;45470;-76
2023/03/20 11:36:31;;;;;;;;;3.33;3.33;;;;;28.91;34.20;101839.19;5055352;28;45601;-77
2023/03/20 11:39:04;;;;;;;;;5.00;3.67;;;;;28.95;33.85;101833.34;5052124;28;45990;-77
2023/03/20 11:41:30;;;;;;;;;4.33;3.33;;;;;29.00;34.15;101841.88;5054360;28;45427;-76
2023/03/20 11:43:56;;;;;;;;;3.67;2.33;;;;;29.02;33.48;101837.91;5053788;28;45669;-76
2023/03/20 11:46:23;;;;;;;;;3.00;3.00;;;;;29.06;34.34;101830.25;5054709;28;45479;-78
2023/03/20 11:49:23;;;;;;;;;4.00;4.00;;;;;29.05;33.44;101834.84;5051015;28;46425;-80
2023/03/20 11:51:50;;;;;;;;;3.67;3.67;;;;;29.00;33.39;101830.94;5053021;28;45549;-77
2023/03/20 11:54:19;;;;;;;;;3.00;3.00;;;;;28.91;32.92;101824.69;5053279;28;45483;-78
2023/03/20 11:56:57;;;;;;;;;2.00;2.00;;;;;28.81;32.72;101830.31;5049003;28;45657;-78
2023/03/20 11:59:30;;;;;;;;;3.33;3.33;;;;;28.70;33.07;101817.94;5044581;28;45558;-78
2023/03/20 12:01:57;;;;;;;;;3.00;1.33;;;;;28.59;32.91;101813.69;5045453;28;45379;-79
2023/03/20 12:04:36;;;;;;;;;3.00;3.00;;;;;28.55;32.61;101823.28;5046680;28;45543;-79
2023/03/20 12:07:15;;;;;;;;;4.00;3.00;;;;;28.47;32.72;101818.69;5045729;28;45493;-78
2023/03/20 12:09:54;;;;;;;;;2.33;2.33;;;;;28.42;32.04;101812.91;5044519;28;46314;-79
2023/03/20 12:12:30;;;;;;;;;3.33;3.33;;;;;28.37;32.36;101813.44;5053347;28;45419;-80
2023/03/20 12:14:58;;;;;;;;;4.00;4.00;;;;;28.32;32.70;101817.72;5050353;28;45542;-78
2023/03/20 12:17:28;;;;;;;;;2.00;2.00;;;;;28.26;32.72;101814.69;5052031;28;45470;-79
2023/03/20 12:20:01;;;;;;;;;2.00;2.00;;;;;28.20;31.96;101817.22;5052625;28;46148;-79
2023/03/20 12:23:01;;;;;;;;;4.33;2.33;;;;;28.12;31.98;101815.38;5054367;28;45439;-79
2023/03/20 12:25:34;;;;;;;;;3.00;3.00;;;;;28.04;32.57;101809.91;5031136;28;45509;-79
2023/03/20 12:28:05;;;;;;;;;3.67;2.67;;;;;27.99;32.30;101807.69;5031659;28;45665;-79
2023/03/20 12:30:45;;;;;;;;;5.33;2.00;;;;;27.93;32.09;101803.81;5029973;28;45528;-79
2023/03/20 12:33:37;;;;;;;;;3.00;3.00;;;;;27.90;32.64;101795.94;5023318;28;45490;-79
2023/03/20 12:36:05;;;;;;;;;3.67;2.00;;;;;27.87;32.69;101796.28;5029753;28;45543;-79
2023/03/20 12:38:33;;;;;;;;;4.67;3.00;;;;;27.80;32.36;101793.41;5032029;28;45541;-79
2023/03/20 12:41:15;;;;;;;;;3.67;2.00;;;;;27.79;32.55;101788.13;5028468;28;45503;-79
2023/03/20 12:43:56;;;;;;;;;3.00;3.00;;;;;27.74;32.05;101784.03;5014253;28;45564;-79
2023/03/20 12:46:44;;;;;;;;;2.67;2.00;;;;;27.73;31.95;101786.94;5030175;28;46601;-79
2023/03/20 12:49:22;;;;;;;;;2.00;2.00;;;;;27.69;32.18;101786.44;5031612;28;45522;-79
2023/03/20 12:52:00;;;;;;;;;1.00;1.00;;;;;27.67;32.37;101783.00;5030192;28;46264;-79
2023/03/20 12:54:54;;;;;;;;;5.00;3.00;;;;;27.65;31.75;101776.91;5031991;28;45466;-79
2023/03/20 12:57:38;;;;;;;;;1.33;1.33;;;;;27.59;31.88;101763.91;5030005;28;45563;-80
2023/03/20 13:00:41;;;;;;;;;3.00;3.00;;;;;27.61;31.83;101768.22;5026905;28;45812;-80
2023/03/20 13:03:17;;;;;;;;;4.33;2.67;;;;;27.60;31.95;101773.84;5047755;28;45828;-80
2023/03/20 13:06:20;;;;;;;;;4.00;2.00;;;;;27.58;31.91;101778.56;5053736;28;45431;-79
2023/03/20 13:09:21;;;;;;;;;5.00;4.00;;;;;27.55;32.28;101778.91;5050368;28;45586;-80
2023/03/20 13:12:06;;;;;;;;;3.00;3.00;;;;;27.53;31.86;101773.63;5051500;28;45738;-79
2023/03/20 13:14:45;;;;;;;;;2.00;2.00;;;;;27.52;31.85;101773.78;5051519;28;45550;-79
2023/03/20 13:17:24;;;;;;;;;1.00;1.00;;;;;27.49;31.79;101770.41;5053647;28;45610;-79
2023/03/20 13:19:59;;;;;;;;;4.00;2.00;;;;;27.47;32.09;101775.16;5045051;28;45543;-79
2023/03/20 13:22:33;;;;;;;;;2.33;2.33;;;;;27.46;31.78;101772.63;5053003;28;45588;-79
2023/03/20 13:25:16;;;;;;;;;3.00;3.00;;;;;27.42;32.13;101763.06;5051076;28;46023;-79
2023/03/20 13:27:54;;;;;;;;;3.33;3.00;;;;;27.38;32.34;101759.81;5053323;28;45411;-79
2023/03/20 13:30:33;;;;;;;;;1.00;1.00;;;;;27.34;31.72;101753.88;5048602;28;45438;-79
2023/03/20 13:33:18;;;;;;;;;2.00;1.67;;;;;27.34;31.79;101753.88;5050834;28;45505;-79
2023/03/20 13:35:52;;;;;;;;;2.33;2.33;;;;;27.34;31.77;101753.03;5053025;28;46163;-79
2023/03/20 13:38:21;;;;;;;;;2.33;2.33;;;;;27.32;32.24;101746.88;5050375;28;45447;-79
2023/03/20 13:41:02;;;;;;;;;3.33;3.33;;;;;27.30;32.32;101759.84;5051383;28;46367;-76
2023/03/20 13:43:46;;;;;;;;;5.33;3.33;;;;;27.28;31.95;101743.66;5049966;28;46227;-76
2023/03/20 13:46:18;;;;;;;;;3.67;3.00;;;;;27.31;31.85;101740.59;5053011;28;46308;-75
2023/03/20 13:48:44;;;;;;;;;2.00;2.00;;;;;27.38;31.79;101742.63;5049214;28;45555;-75
2023/03/20 13:51:25;;;;;;;;;2.67;1.00;;;;;27.45;32.00;101736.31;5052969;28;45452;-75
2023/03/20 13:54:15;;;;;;;;;1.67;1.67;;;;;27.55;32.27;101743.47;5048318;28;45568;-75
2023/03/20 13:56:56;;;;;;;;;2.67;2.67;;;;;27.65;32.67;101738.72;5049675;28;46373;-75
2023/03/20 13:59:46;;;;;;;;;2.00;2.00;;;;;27.75;32.40;101736.66;5053465;28;45566;-74
2023/03/20 14:02:18;;;;;;;;;3.00;3.00;;;;;27.86;32.46;101735.44;5052268;28;45356;-77
2023/03/20 14:04:46;;;;;;;;;4.00;4.00;;;;;27.96;32.38;101731.66;5052873;28;45505;-77
2023/03/20 14:07:33;;;;;;;;;3.00;2.00;;;;;28.03;32.70;101721.75;5050957;28;47419;-77
2023/03/20 14:10:31;;;;;;;;;2.67;2.00;;;;;28.07;32.07;101725.00;5050314;28;45584;-77
2023/03/20 14:13:05;;;;;;;;;4.33;3.00;;;;;28.11;32.37;101715.41;5050843;28;45571;-77
2023/03/20 14:15:34;;;;;;;;;3.00;3.00;;;;;28.16;32.03;101718.47;5048890;28;45658;-77
2023/03/20 14:18:05;;;;;;;;;2.00;2.00;;;;;28.17;32.75;101711.97;5038450;28;45453;-77
2023/03/20 14:20:37;;;;;;;;;1.67;1.67;;;;;28.21;32.16;101712.47;5047992;28;45501;-77
2023/03/20 14:23:04;;;;;;;;;3.00;3.00;;;;;28.28;32.58;101703.44;5049462;28;45496;-78
2023/03/20 14:25:38;;;;;;;;;3.67;3.67;;;;;28.36;32.35;101710.72;5049750;28;46503;-77
2023/03/20 14:28:23;;;;;;;;;3.33;3.00;;;;;28.46;32.88;101698.72;5047432;28;46519;-77
2023/03/20 14:30:52;;;;;;;;;4.33;3.00;;;;;28.52;32.18;101704.31;5048867;28;45563;-80
2023/03/20 14:33:17;;;;;;;;;3.00;3.00;;;;;28.56;32.40;101698.53;5050771;28;45400;-77
2023/03/20 14:35:47;;;;;;;;;3.33;3.33;;;;;28.56;32.16;101691.16;5041175;28;45518;-75
2023/03/20 14:38:34;;;;;;;;;4.00;4.00;;;;;28.53;32.11;101691.53;5042373;28;47347;-76
2023/03/20 14:41:13;;;;;;;;;3.00;3.00;;;;;28.50;32.23;101691.88;5044656;28;45581;-74
2023/03/20 14:44:17;;;;;;;;;4.67;3.00;;;;;28.50;32.75;101684.56;5049875;28;45337;-74
2023/03/20 14:46:48;;;;;;;;;3.33;3.33;;;;;28.54;32.48;101677.69;5038539;28;45779;-75
2023/03/20 14:49:28;;;;;;;;;5.67;2.00;;;;;28.59;32.13;101682.63;5041907;28;45416;-76
2023/03/20 14:52:09;;;;;;;;;3.00;3.00;;;;;28.63;32.11;101683.97;5048024;28;45595;-75
2023/03/20 14:54:34;;;;;;;;;2.67;2.67;;;;;28.64;32.50;101691.13;5050242;28;45599;-75
2023/03/20 14:57:18;;;;;;;;;4.33;4.33;;;;;28.67;32.10;101685.31;5048304;28;45641;-76
2023/03/20 14:59:48;;;;;;;;;4.00;4.00;;;;;28.64;32.22;101677.47;5050286;28;46332;-72
2023/03/20 15:02:26;;;;;;;;;4.00;3.33;;;;;28.59;32.08;101665.38;5049806;28;45538;-73
2023/03/20 15:04:52;;;;;;;;;6.67;4.67;;;;;28.55;32.48;101670.34;5043871;28;45384;-74
2023/03/20 15:07:20;;;;;;;;;3.67;3.00;;;;;28.52;31.95;101678.88;5051201;28;45572;-73
2023/03/20 15:09:49;;;;;;;;;5.33;5.00;;;;;28.49;32.06;101679.28;5053913;28;45977;-74
2023/03/20 15:12:20;;;;;;;;;4.00;4.00;;;;;28.47;32.18;101676.72;5051882;28;45444;-75
2023/03/20 15:14:50;;;;;;;;;5.33;4.00;;;;;28.45;32.34;101670.59;5043614;28;45643;-75
2023/03/20 15:17:36;;;;;;;;;8.00;4.67;;;;;28.46;31.97;101665.97;5053776;28;45431;-75
2023/03/20 15:20:06;;;;;;;;;3.33;2.33;;;;;28.44;31.90;101659.84;5050135;28;48438;-74
2023/03/20 15:22:31;;;;;;;;;3.33;3.33;;;;;28.43;32.09;101658.13;5053593;28;45457;-73
2023/03/20 15:24:57;;;;;;;;;3.00;2.00;;;;;28.42;32.52;101654.56;5048501;28;46066;-72
2023/03/20 15:27:28;;;;;;;;;5.67;4.00;;;;;28.38;32.17;101654.09;5036644;28;45522;-75
2023/03/20 15:29:55;;;;;;;;;5.00;5.00;;;;;28.35;32.25;101659.03;5055639;28;46016;-75
2023/03/20 15:32:21;;;;;;;;;5.00;3.00;;;;;28.30;32.16;101645.94;5053908;28;45410;-76
2023/03/20 15:34:48;;;;;;;;;5.00;3.00;;;;;28.30;32.58;101647.78;5053373;28;45472;-76
2023/03/20 15:37:16;;;;;;;;;1.67;1.67;;;;;28.29;31.81;101644.25;5055445;28;45341;-76
2023/03/20 15:39:45;;;;;;;;;5.67;2.67;;;;;28.30;32.30;101637.75;5045359;28;45346;-76
2023/03/20 15:42:17;;;;;;;;;4.00;4.00;;;;;28.32;32.45;101640.28;5053638;28;45817;-76
2023/03/20 15:44:46;;;;;;;;;3.00;3.00;;;;;28.33;32.56;101642.84;5055250;28;45542;-75
2023/03/20 15:47:19;;;;;;;;;2.67;2.67;;;;;28.34;32.86;101635.50;5042956;28;45738;-76
2023/03/20 15:49:54;;;;;;;;;3.67;3.67;;;;;28.34;32.08;101641.81;5043706;28;45511;-76
2023/03/20 15:52:42;;;;;;;;;3.33;3.00;;;;;28.35;32.04;101643.50;5056636;28;45382;-75
2023/03/20 15:55:15;;;;;;;;;2.67;2.67;;;;;28.35;32.31;101640.78;5043120;28;45532;-76
2023/03/20 15:57:43;;;;;;;;;5.00;3.00;;;;;28.36;32.20;101630.72;5055065;28;45442;-77
2023/03/20 16:00:16;;;;;;;;;3.00;3.00;;;;;28.35;32.18;101629.84;5055302;28;47118;-75
2023/03/20 16:02:44;;;;;;;;;6.00;5.33;;;;;28.34;32.53;101630.91;5050301;28;45505;-76
2023/03/20 16:05:14;;;;;;;;;4.00;4.00;;;;;28.34;32.08;101630.03;5057006;28;45348;-76
2023/03/20 16:07:40;;;;;;;;;4.00;4.00;;;;;28.34;32.82;101622.72;5052988;28;45715;-74
2023/03/20 16:10:16;;;;;;;;;3.67;3.67;;;;;28.35;32.82;101610.75;5055014;28;45826;-75
2023/03/20 16:12:49;;;;;;;;;3.00;2.67;;;;;28.36;32.22;101606.97;5053989;28;45442;-75
2023/03/20 16:15:17;;;;;;;;;5.67;2.67;;;;;28.41;32.95;101607.28;5056130;28;46756;-74
2023/03/20 16:17:44;;;;;;;;;3.00;3.00;;;;;28.43;31.99;101601.66;5051033;28;45712;-74
2023/03/20 16:20:15;;;;;;;;;3.00;3.00;;;;;28.46;32.79;101606.75;5048128;28;46159;-76
2023/03/20 16:22:42;;;;;;;;;4.00;3.33;;;;;28.48;32.79;101598.41;5054451;28;45496;-74
2023/03/20 16:25:13;;;;;;;;;4.00;2.00;;;;;28.50;32.44;101601.78;5050112;28;45411;-73
2023/03/20 16:27:41;;;;;;;;;5.67;3.00;;;;;28.54;32.94;101603.94;5054228;28;45868;-74
2023/03/20 16:30:35;;;;;;;;;3.33;3.33;;;;;28.60;32.20;101594.19;5042046;28;46858;-75
2023/03/20 16:33:08;;;;;;;;;3.00;3.00;;;;;28.64;32.44;101597.41;5043254;28;45857;-72
2023/03/20 16:35:46;;;;;;;;;5.67;4.00;;;;;28.69;32.55;101596.88;5051640;28;45487;-75
2023/03/20 16:38:46;;;;;;;;;2.67;2.33;;;;;28.75;32.58;101591.53;5052352;28;45505;-75
2023/03/20 16:41:16;;;;;;;;;3.00;3.00;;;;;28.80;32.58;101583.63;5036843;28;46948;-73
2023/03/20 16:43:48;;;;;;;;;3.00;2.33;;;;;28.83;32.52;101590.59;5049767;28;45689;-73
2023/03/20 16:46:23;;;;;;;;;5.33;2.33;;;;;28.85;33.08;101598.63;5051947;28;45919;-75
2023/03/20 16:49:33;;;;;;;;;2.33;2.33;;;;;28.85;32.37;101593.16;5043522;28;47606;-74
2023/03/20 16:52:00;;;;;;;;;5.67;4.67;;;;;28.78;32.37;101584.84;5049935;28;47193;-73
2023/03/20 16:54:30;;;;;;;;;2.00;2.00;;;;;28.70;32.13;101577.56;5052068;28;45555;-75
2023/03/20 16:56:56;;;;;;;;;3.00;2.67;;;;;28.61;31.87;101581.41;5052547;28;45654;-75
2023/03/20 16:59:24;;;;;;;;;5.00;2.33;;;;;28.50;31.55;101577.22;5052104;28;45418;-74
2023/03/20 17:01:52;;;;;;;;;3.00;3.00;;;;;28.40;31.42;101580.16;5052191;28;46560;-75
2023/03/20 17:04:27;;;;;;;;;2.67;2.67;;;;;28.29;32.04;101581.44;5039275;28;45441;-75
2023/03/20 17:07:24;;;;;;;;;3.33;3.33;;;;;28.22;31.43;101583.16;5052597;28;45838;-75
2023/03/20 17:10:00;;;;;;;;;2.00;2.00;;;;;28.11;32.15;101576.22;5050889;28;45907;-75
2023/03/20 17:12:30;;;;;;;;;2.50;2.50;;;;;28.03;31.89;101588.03;5046639;28;46198;-77
2023/03/20 17:14:55;;;;;;;;;6.33;3.67;;;;;27.96;31.38;101585.16;5047799;28;45518;-75
2023/03/20 17:17:23;;;;;;;;;2.33;2.00;;;;;27.91;31.47;101573.13;5049879;28;45488;-78
2023/03/20 17:19:49;;;;;;;;;6.00;3.67;;;;;27.88;31.32;101569.69;5040079;28;45486;-75
2023/03/20 17:22:18;;;;;;;;;3.00;3.00;;;;;27.87;31.67;101573.47;5049890;28;45755;-77
2023/03/20 17:24:43;;;;;;;;;4.00;2.00;;;;;27.88;31.96;101579.78;5066807;28;45371;-76
2023/03/20 17:27:11;;;;;;;;;5.33;3.00;;;;;27.90;31.85;101574.16;5045206;28;45422;-77
2023/03/20 17:29:37;;;;;;;;;4.33;4.00;;;;;27.88;31.88;101575.16;5054445;28;45513;-76
2023/03/20 17:32:09;;;;;;;;;8.33;4.00;;;;;27.88;31.77;101577.06;5051319;28;45752;-75
2023/03/20 17:34:34;;;;;;;;;3.00;3.00;;;;;27.86;32.01;101568.19;5042822;28;45442;-75
2023/03/20 17:37:02;;;;;;;;;4.00;4.00;;;;;27.83;31.64;101571.28;5050315;28;45531;-77
2023/03/20 17:39:28;;;;;;;;;7.00;4.00;;;;;27.83;31.30;101572.13;5054316;28;45586;-76
2023/03/20 17:41:54;;;;;;;;;4.33;2.67;;;;;27.81;31.32;101571.47;5051173;28;45505;-77
2023/03/20 17:44:20;;;;;;;;;3.67;2.67;;;;;27.81;31.73;101574.19;5052823;28;45446;-77
2023/03/20 17:46:46;;;;;;;;;3.33;3.33;;;;;27.78;31.67;101571.81;5053460;28;45559;-78
2023/03/20 17:49:14;;;;;;;;;6.00;4.00;;;;;27.78;31.52;101579.16;5053129;28;45608;-79
2023/03/20 17:51:39;;;;;;;;;4.00;2.00;;;;;27.72;31.53;101564.34;5053709;28;45944;-79
2023/03/20 17:54:05;;;;;;;;;6.00;4.67;;;;;27.71;31.66;101576.28;5054010;28;45351;-79
2023/03/20 17:56:31;;;;;;;;;3.00;3.00;;;;;27.67;31.54;101575.75;5053903;28;45648;-80
2023/03/20 17:59:01;;;;;;;;;2.33;2.00;;;;;27.65;31.77;101575.09;5052972;28;45537;-80
2023/03/20 18:01:28;;;;;;;;;2.67;2.67;;;;;27.61;31.32;101580.06;5052839;28;46914;-79
2023/03/20 18:03:53;;;;;;;;;2.00;2.00;;;;;27.62;31.81;101575.44;5051906;28;45478;-79
2023/03/20 18:06:23;;;;;;;;;4.00;4.00;;;;;27.60;31.64;101575.66;5052994;28;46054;-80
2023/03/20 18:08:49;;;;;;;;;2.00;2.00;;;;;27.64;31.29;101575.28;5054365;28;45406;-80
2023/03/20 18:11:14;;;;;;;;;2.67;2.67;;;;;27.63;31.67;101579.91;5053074;28;45590;-79
2023/03/20 18:13:40;;;;;;;;;5.67;3.00;;;;;27.64;31.19;101583.44;5053928;28;45605;-79
2023/03/20 18:16:06;;;;;;;;;5.67;4.00;;;;;27.58;31.07;101587.69;5053666;28;45438;-80
2023/03/20 18:18:31;;;;;;;;;1.00;1.00;;;;;27.57;31.18;101583.28;5054098;28;45348;-78
2023/03/20 18:20:58;;;;;;;;;2.00;2.00;;;;;27.57;31.25;101577.81;5061056;28;51370;-79
2023/03/20 18:23:23;;;;;;;;;6.00;5.00;;;;;27.55;31.76;101575.25;5059218;28;45381;-78
2023/03/20 18:25:49;;;;;;;;;4.67;3.00;;;;;27.55;31.22;101578.00;5053442;28;45554;-78
2023/03/20 18:28:21;;;;;;;;;11.00;7.00;;;;;27.57;31.79;101592.31;5053654;28;45328;-79
2023/03/20 18:30:47;;;;;;;;;5.00;5.00;;;;;27.57;31.74;101584.13;5053385;28;45510;-81
2023/03/20 18:33:13;;;;;;;;;7.33;4.67;;;;;27.57;31.03;101580.53;5040420;28;45496;-81
2023/03/20 18:35:39;;;;;;;;;5.33;5.00;;;;;27.56;31.19;101579.72;5051947;28;45510;-81